sensor_id;sensor_type;location;lat;lon;timestamp;temperature;humidity
3156;DHT22;1588;50.892;7.082;2022-12-18T00:00:26;-6.50;99.90
3156;DHT22;1588;50.892;7.082;2022-12-18T00:05:30;-6.20;99.90
3156;DHT22;1588;50.892;7.082;2022-12-18T00:10:32;-5.80;99.90
3156;DHT22;1588;50.892;7.082;2022-12-18T00:15:45;-5.50;99.90
3156;DHT22;1588;50.892;7.082;2022-12-18T00:20:49;-5.40;99.90
3156;DHT22;1588;50.892;7.082;2022-12-18T00:25:51;-5.50;99.90
3156;DHT22;1588;50.892;7.082;2022-12-18T00:31:00;-5.60;99.90
3156;DHT22;1588;50.892;7.082;2022-12-18T00:36:06;-5.70;99.90
3156;DHT22;1588;50.892;7.082;2022-12-18T00:41:10;-5.80;99.90
3156;DHT22;1588;50.892;7.082;2022-12-18T00:46:23;-5.80;99.90
3156;DHT22;1588;50.892;7.082;2022-12-18T00:51:27;-5.70;99.90
3156;DHT22;1588;50.892;7.082;2022-12-18T00:56:30;-5.70;99.90
3156;DHT22;1588;50.892;7.082;2022-12-18T01:01:33;-5.60;99.90
3156;DHT22;1588;50.892;7.082;2022-12-18T01:06:37;-5.40;99.90
3156;DHT22;1588;50.892;7.082;2022-12-18T01:11:39;-5.30;99.90
3156;DHT22;1588;50.892;7.082;2022-12-18T01:16:47;-5.30;99.90
3156;DHT22;1588;50.892;7.082;2022-12-18T01:21:51;-5.40;99.90
3156;DHT22;1588;50.892;7.082;2022-12-18T01:26:55;-5.70;99.90
3156;DHT22;1588;50.892;7.082;2022-12-18T01:31:58;-5.70;99.90
3156;DHT22;1588;50.892;7.082;2022-12-18T01:37:04;-5.90;99.90
3156;DHT22;1588;50.892;7.082;2022-12-18T01:42:12;-5.90;99.90
3156;DHT22;1588;50.892;7.082;2022-12-18T01:47:21;-6.00;99.90
3156;DHT22;1588;50.892;7.082;2022-12-18T01:52:28;-5.90;99.90
3156;DHT22;1588;50.892;7.082;2022-12-18T01:57:31;-5.90;99.90
3156;DHT22;1588;50.892;7.082;2022-12-18T02:02:36;-5.80;99.90
3156;DHT22;1588;50.892;7.082;2022-12-18T02:07:48;-5.90;99.90
3156;DHT22;1588;50.892;7.082;2022-12-18T02:12:57;-6.00;99.90
3156;DHT22;1588;50.892;7.082;2022-12-18T02:18:06;-5.90;99.90
3156;DHT22;1588;50.892;7.082;2022-12-18T02:23:21;-6.00;99.90
3156;DHT22;1588;50.892;7.082;2022-12-18T02:28:31;-6.10;99.90
3156;DHT22;1588;50.892;7.082;2022-12-18T02:33:35;-6.40;99.90
3156;DHT22;1588;50.892;7.082;2022-12-18T02:38:39;-6.50;99.90
3156;DHT22;1588;50.892;7.082;2022-12-18T02:43:47;-6.60;99.90
3156;DHT22;1588;50.892;7.082;2022-12-18T02:48:50;-6.80;99.90
3156;DHT22;1588;50.892;7.082;2022-12-18T02:54:00;-6.90;99.90
3156;DHT22;1588;50.892;7.082;2022-12-18T02:59:11;-7.00;99.90
3156;DHT22;1588;50.892;7.082;2022-12-18T03:04:19;-7.10;99.90
3156;DHT22;1588;50.892;7.082;2022-12-18T03:09:28;-6.90;99.90
3156;DHT22;1588;50.892;7.082;2022-12-18T03:14:33;-6.80;99.90
3156;DHT22;1588;50.892;7.082;2022-12-18T03:19:38;-6.50;99.90
3156;DHT22;1588;50.892;7.082;2022-12-18T03:24:41;-6.50;99.90
3156;DHT22;1588;50.892;7.082;2022-12-18T03:29:48;-6.50;99.90
3156;DHT22;1588;50.892;7.082;2022-12-18T03:34:54;-6.50;99.90
3156;DHT22;1588;50.892;7.082;2022-12-18T03:39:59;-6.50;99.90
3156;DHT22;1588;50.892;7.082;2022-12-18T03:45:08;-6.40;99.90
3156;DHT22;1588;50.892;7.082;2022-12-18T03:50:14;-6.40;99.90
3156;DHT22;1588;50.892;7.082;2022-12-18T03:55:20;-6.30;99.90
3156;DHT22;1588;50.892;7.082;2022-12-18T04:00:26;-6.10;99.90
3156;DHT22;1588;50.892;7.082;2022-12-18T04:05:28;-5.90;99.90
3156;DHT22;1588;50.892;7.082;2022-12-18T04:10:32;-5.70;99.90
3156;DHT22;1588;50.892;7.082;2022-12-18T04:15:39;-5.70;99.90
3156;DHT22;1588;50.892;7.082;2022-12-18T04:20:41;-5.60;99.90
3156;DHT22;1588;50.892;7.082;2022-12-18T04:25:44;-5.60;99.90
3156;DHT22;1588;50.892;7.082;2022-12-18T04:30:49;-5.60;99.90
3156;DHT22;1588;50.892;7.082;2022-12-18T04:35:52;-5.60;99.90
3156;DHT22;1588;50.892;7.082;2022-12-18T04:40:54;-5.70;99.90
3156;DHT22;1588;50.892;7.082;2022-12-18T04:46:03;-5.60;99.90
3156;DHT22;1588;50.892;7.082;2022-12-18T04:51:09;-5.60;99.90
3156;DHT22;1588;50.892;7.082;2022-12-18T04:56:13;-5.60;99.90
3156;DHT22;1588;50.892;7.082;2022-12-18T05:01:18;-5.70;99.90
3156;DHT22;1588;50.892;7.082;2022-12-18T05:06:20;-5.80;99.90
3156;DHT22;1588;50.892;7.082;2022-12-18T05:11:22;-5.80;99.90
3156;DHT22;1588;50.892;7.082;2022-12-18T05:16:26;-5.80;99.90
3156;DHT22;1588;50.892;7.082;2022-12-18T05:21:28;-5.80;99.90
3156;DHT22;1588;50.892;7.082;2022-12-18T05:26:30;-5.90;99.90
3156;DHT22;1588;50.892;7.082;2022-12-18T05:31:34;-5.90;99.90
3156;DHT22;1588;50.892;7.082;2022-12-18T05:36:36;-5.90;99.90
3156;DHT22;1588;50.892;7.082;2022-12-18T05:41:39;-5.90;99.90
3156;DHT22;1588;50.892;7.082;2022-12-18T05:46:42;-5.80;99.90
3156;DHT22;1588;50.892;7.082;2022-12-18T05:51:45;-5.80;99.90
3156;DHT22;1588;50.892;7.082;2022-12-18T05:56:47;-5.80;99.90
3156;DHT22;1588;50.892;7.082;2022-12-18T06:01:51;-5.90;99.90
3156;DHT22;1588;50.892;7.082;2022-12-18T06:06:53;-5.90;99.90
3156;DHT22;1588;50.892;7.082;2022-12-18T06:11:55;-5.90;99.90
3156;DHT22;1588;50.892;7.082;2022-12-18T06:16:59;-6.00;99.90
3156;DHT22;1588;50.892;7.082;2022-12-18T06:22:02;-6.10;99.90
3156;DHT22;1588;50.892;7.082;2022-12-18T06:27:06;-6.10;99.90
3156;DHT22;1588;50.892;7.082;2022-12-18T06:32:09;-6.30;99.90
3156;DHT22;1588;50.892;7.082;2022-12-18T06:37:12;-6.30;99.90
3156;DHT22;1588;50.892;7.082;2022-12-18T06:42:15;-6.30;99.90
3156;DHT22;1588;50.892;7.082;2022-12-18T06:47:27;-6.30;99.90
3156;DHT22;1588;50.892;7.082;2022-12-18T06:52:31;-6.30;99.90
3156;DHT22;1588;50.892;7.082;2022-12-18T06:57:34;-6.30;99.90
3156;DHT22;1588;50.892;7.082;2022-12-18T07:02:38;-6.40;99.90
3156;DHT22;1588;50.892;7.082;2022-12-18T07:07:41;-6.60;99.90
3156;DHT22;1588;50.892;7.082;2022-12-18T07:12:45;-6.60;99.90
3156;DHT22;1588;50.892;7.082;2022-12-18T07:17:48;-6.40;99.90
3156;DHT22;1588;50.892;7.082;2022-12-18T07:22:51;-6.20;99.90
3156;DHT22;1588;50.892;7.082;2022-12-18T07:27:54;-6.20;99.90
3156;DHT22;1588;50.892;7.082;2022-12-18T07:32:58;-6.20;99.90
3156;DHT22;1588;50.892;7.082;2022-12-18T07:38:05;-6.10;99.90
3156;DHT22;1588;50.892;7.082;2022-12-18T07:43:08;-5.90;99.90
3156;DHT22;1588;50.892;7.082;2022-12-18T07:48:11;-5.70;99.90
3156;DHT22;1588;50.892;7.082;2022-12-18T07:53:15;-5.70;99.90
3156;DHT22;1588;50.892;7.082;2022-12-18T07:58:18;-5.50;99.90
3156;DHT22;1588;50.892;7.082;2022-12-18T08:03:22;-5.50;99.90
3156;DHT22;1588;50.892;7.082;2022-12-18T08:08:26;-5.40;99.90
3156;DHT22;1588;50.892;7.082;2022-12-18T08:13:28;-5.30;99.90
3156;DHT22;1588;50.892;7.082;2022-12-18T08:18:33;-5.10;99.90
3156;DHT22;1588;50.892;7.082;2022-12-18T08:23:36;-4.90;99.90
3156;DHT22;1588;50.892;7.082;2022-12-18T08:28:39;-4.90;99.90
3156;DHT22;1588;50.892;7.082;2022-12-18T08:33:43;-4.80;99.90
3156;DHT22;1588;50.892;7.082;2022-12-18T08:38:46;-4.50;99.90
3156;DHT22;1588;50.892;7.082;2022-12-18T08:43:49;-4.30;99.90
3156;DHT22;1588;50.892;7.082;2022-12-18T08:49:11;-4.00;99.90
3156;DHT22;1588;50.892;7.082;2022-12-18T08:54:13;-3.90;99.90
3156;DHT22;1588;50.892;7.082;2022-12-18T08:59:16;-3.50;99.90
3156;DHT22;1588;50.892;7.082;2022-12-18T09:04:21;-2.90;99.90
3156;DHT22;1588;50.892;7.082;2022-12-18T09:09:24;-1.80;99.90
3156;DHT22;1588;50.892;7.082;2022-12-18T09:14:26;-1.20;99.90
3156;DHT22;1588;50.892;7.082;2022-12-18T09:19:30;-0.90;99.90
3156;DHT22;1588;50.892;7.082;2022-12-18T09:24:33;-0.80;99.90
3156;DHT22;1588;50.892;7.082;2022-12-18T09:29:36;-1.10;99.90
3156;DHT22;1588;50.892;7.082;2022-12-18T09:34:40;-1.20;99.90
3156;DHT22;1588;50.892;7.082;2022-12-18T09:39:44;-0.50;99.90
3156;DHT22;1588;50.892;7.082;2022-12-18T09:44:49;-0.80;99.90
3156;DHT22;1588;50.892;7.082;2022-12-18T09:49:58;-1.20;99.90
3156;DHT22;1588;50.892;7.082;2022-12-18T09:55:05;-1.20;99.90
3156;DHT22;1588;50.892;7.082;2022-12-18T10:00:16;-1.10;99.90
3156;DHT22;1588;50.892;7.082;2022-12-18T10:05:34;-1.20;99.90
3156;DHT22;1588;50.892;7.082;2022-12-18T10:10:43;-1.20;99.90
3156;DHT22;1588;50.892;7.082;2022-12-18T10:16:06;-1.20;99.90
3156;DHT22;1588;50.892;7.082;2022-12-18T10:21:17;-1.10;99.90
3156;DHT22;1588;50.892;7.082;2022-12-18T10:26:21;-0.90;99.90
3156;DHT22;1588;50.892;7.082;2022-12-18T10:31:25;-0.80;99.90
3156;DHT22;1588;50.892;7.082;2022-12-18T10:36:29;-0.80;99.90
3156;DHT22;1588;50.892;7.082;2022-12-18T10:41:32;-0.70;99.90
3156;DHT22;1588;50.892;7.082;2022-12-18T10:46:35;-0.60;99.90
3156;DHT22;1588;50.892;7.082;2022-12-18T10:51:41;-0.40;99.90
3156;DHT22;1588;50.892;7.082;2022-12-18T10:56:44;-0.50;99.90
3156;DHT22;1588;50.892;7.082;2022-12-18T11:01:49;-0.40;99.90
3156;DHT22;1588;50.892;7.082;2022-12-18T11:06:59;-0.30;99.90
3156;DHT22;1588;50.892;7.082;2022-12-18T11:12:04;-0.30;99.90
3156;DHT22;1588;50.892;7.082;2022-12-18T11:17:18;-0.30;99.90
3156;DHT22;1588;50.892;7.082;2022-12-18T11:22:26;-0.30;99.90
3156;DHT22;1588;50.892;7.082;2022-12-18T11:28:03;-0.30;99.90
3156;DHT22;1588;50.892;7.082;2022-12-18T11:33:21;-0.30;99.90
3156;DHT22;1588;50.892;7.082;2022-12-18T11:38:28;-0.40;99.90
3156;DHT22;1588;50.892;7.082;2022-12-18T11:43:35;-0.30;99.90
3156;DHT22;1588;50.892;7.082;2022-12-18T11:48:44;-0.40;99.90
3156;DHT22;1588;50.892;7.082;2022-12-18T11:53:51;-0.40;99.90
3156;DHT22;1588;50.892;7.082;2022-12-18T11:59:04;-0.40;99.90
3156;DHT22;1588;50.892;7.082;2022-12-18T12:04:43;-0.30;99.90
3156;DHT22;1588;50.892;7.082;2022-12-18T12:09:57;-0.40;99.90
3156;DHT22;1588;50.892;7.082;2022-12-18T12:15:10;-0.50;99.90
3156;DHT22;1588;50.892;7.082;2022-12-18T12:20:20;-0.50;99.90
3156;DHT22;1588;50.892;7.082;2022-12-18T12:25:36;-0.50;99.90
3156;DHT22;1588;50.892;7.082;2022-12-18T12:30:48;-0.50;99.90
3156;DHT22;1588;50.892;7.082;2022-12-18T12:36:01;-0.60;99.90
3156;DHT22;1588;50.892;7.082;2022-12-18T12:41:13;-0.60;99.90
3156;DHT22;1588;50.892;7.082;2022-12-18T12:46:34;-0.70;99.90
3156;DHT22;1588;50.892;7.082;2022-12-18T12:51:40;-0.70;99.90
3156;DHT22;1588;50.892;7.082;2022-12-18T12:56:49;-0.70;99.90
3156;DHT22;1588;50.892;7.082;2022-12-18T13:01:59;-0.70;99.90
3156;DHT22;1588;50.892;7.082;2022-12-18T13:07:12;-0.60;99.90
3156;DHT22;1588;50.892;7.082;2022-12-18T13:12:21;-0.70;99.90
3156;DHT22;1588;50.892;7.082;2022-12-18T13:17:42;-0.60;99.90
3156;DHT22;1588;50.892;7.082;2022-12-18T13:22:46;-0.50;99.90
3156;DHT22;1588;50.892;7.082;2022-12-18T13:28:02;-0.60;99.90
3156;DHT22;1588;50.892;7.082;2022-12-18T13:44:32;-0.60;99.90
3156;DHT22;1588;50.892;7.082;2022-12-18T13:49:41;-0.70;99.90
3156;DHT22;1588;50.892;7.082;2022-12-18T13:54:49;-0.70;99.90
3156;DHT22;1588;50.892;7.082;2022-12-18T13:59:54;-0.70;99.90
3156;DHT22;1588;50.892;7.082;2022-12-18T14:04:58;-0.90;99.90
3156;DHT22;1588;50.892;7.082;2022-12-18T14:10:01;-0.90;99.90
3156;DHT22;1588;50.892;7.082;2022-12-18T14:15:14;-1.00;99.90
3156;DHT22;1588;50.892;7.082;2022-12-18T14:20:22;-1.10;99.90
3156;DHT22;1588;50.892;7.082;2022-12-18T14:25:27;-1.20;99.90
3156;DHT22;1588;50.892;7.082;2022-12-18T14:30:35;-1.10;99.90
3156;DHT22;1588;50.892;7.082;2022-12-18T14:35:39;-1.20;99.90
3156;DHT22;1588;50.892;7.082;2022-12-18T14:40:43;-1.10;99.90
3156;DHT22;1588;50.892;7.082;2022-12-18T14:45:47;-1.20;99.90
3156;DHT22;1588;50.892;7.082;2022-12-18T14:50:59;-1.30;99.90
3156;DHT22;1588;50.892;7.082;2022-12-18T14:56:10;-1.30;99.90
3156;DHT22;1588;50.892;7.082;2022-12-18T15:01:23;-1.30;99.90
3156;DHT22;1588;50.892;7.082;2022-12-18T15:06:32;-1.40;99.90
3156;DHT22;1588;50.892;7.082;2022-12-18T15:11:46;-1.40;99.90
3156;DHT22;1588;50.892;7.082;2022-12-18T15:16:52;-1.40;99.90
3156;DHT22;1588;50.892;7.082;2022-12-18T15:21:56;-1.50;99.90
3156;DHT22;1588;50.892;7.082;2022-12-18T15:26:59;-1.50;99.90
3156;DHT22;1588;50.892;7.082;2022-12-18T15:32:05;-1.50;99.90
3156;DHT22;1588;50.892;7.082;2022-12-18T15:37:09;-1.50;99.90
3156;DHT22;1588;50.892;7.082;2022-12-18T15:42:13;-1.50;99.90
3156;DHT22;1588;50.892;7.082;2022-12-18T15:47:34;-1.60;99.90
3156;DHT22;1588;50.892;7.082;2022-12-18T15:52:40;-1.60;99.90
3156;DHT22;1588;50.892;7.082;2022-12-18T15:57:44;-1.60;99.90
3156;DHT22;1588;50.892;7.082;2022-12-18T16:02:48;-1.70;99.90
3156;DHT22;1588;50.892;7.082;2022-12-18T16:07:51;-1.60;99.90
3156;DHT22;1588;50.892;7.082;2022-12-18T16:12:55;-1.70;99.90
3156;DHT22;1588;50.892;7.082;2022-12-18T16:17:58;-1.70;99.90
3156;DHT22;1588;50.892;7.082;2022-12-18T16:23:01;-1.70;99.90
3156;DHT22;1588;50.892;7.082;2022-12-18T16:28:05;-1.70;99.90
3156;DHT22;1588;50.892;7.082;2022-12-18T16:33:11;-1.70;99.90
3156;DHT22;1588;50.892;7.082;2022-12-18T16:38:13;-1.80;99.90
3156;DHT22;1588;50.892;7.082;2022-12-18T16:43:20;-1.70;99.90
3156;DHT22;1588;50.892;7.082;2022-12-18T16:48:27;-1.80;99.90
3156;DHT22;1588;50.892;7.082;2022-12-18T16:53:30;-1.70;99.90
3156;DHT22;1588;50.892;7.082;2022-12-18T16:58:37;-1.70;99.90
3156;DHT22;1588;50.892;7.082;2022-12-18T17:03:51;-1.70;99.90
3156;DHT22;1588;50.892;7.082;2022-12-18T17:08:56;-1.80;99.90
3156;DHT22;1588;50.892;7.082;2022-12-18T17:14:05;-1.70;99.90
3156;DHT22;1588;50.892;7.082;2022-12-18T17:19:11;-1.70;99.90
3156;DHT22;1588;50.892;7.082;2022-12-18T17:24:15;-1.70;99.90
3156;DHT22;1588;50.892;7.082;2022-12-18T17:29:19;-1.70;99.90
3156;DHT22;1588;50.892;7.082;2022-12-18T17:34:35;-1.80;99.90
3156;DHT22;1588;50.892;7.082;2022-12-18T17:39:42;-1.70;99.90
3156;DHT22;1588;50.892;7.082;2022-12-18T17:44:44;-1.80;99.90
3156;DHT22;1588;50.892;7.082;2022-12-18T17:49:52;-1.80;99.90
3156;DHT22;1588;50.892;7.082;2022-12-18T17:54:59;-1.80;99.90
3156;DHT22;1588;50.892;7.082;2022-12-18T18:00:03;-1.90;99.90
3156;DHT22;1588;50.892;7.082;2022-12-18T18:05:07;-1.90;99.90
3156;DHT22;1588;50.892;7.082;2022-12-18T18:10:13;-1.90;99.90
3156;DHT22;1588;50.892;7.082;2022-12-18T18:15:17;-1.80;99.90
3156;DHT22;1588;50.892;7.082;2022-12-18T18:20:23;-1.90;99.90
3156;DHT22;1588;50.892;7.082;2022-12-18T18:25:25;-1.80;99.90
3156;DHT22;1588;50.892;7.082;2022-12-18T18:30:38;-1.90;99.90
3156;DHT22;1588;50.892;7.082;2022-12-18T18:35:43;-1.80;99.90
3156;DHT22;1588;50.892;7.082;2022-12-18T18:40:47;-1.80;99.90
3156;DHT22;1588;50.892;7.082;2022-12-18T18:45:54;-1.80;99.90
3156;DHT22;1588;50.892;7.082;2022-12-18T18:50:59;-1.80;99.90
3156;DHT22;1588;50.892;7.082;2022-12-18T18:56:03;-1.80;99.90
3156;DHT22;1588;50.892;7.082;2022-12-18T19:01:08;-1.70;99.90
3156;DHT22;1588;50.892;7.082;2022-12-18T19:06:16;-1.70;99.90
3156;DHT22;1588;50.892;7.082;2022-12-18T19:11:21;-1.70;99.90
3156;DHT22;1588;50.892;7.082;2022-12-18T19:16:42;-1.70;99.90
3156;DHT22;1588;50.892;7.082;2022-12-18T19:21:47;-1.60;99.90
3156;DHT22;1588;50.892;7.082;2022-12-18T19:26:50;-1.60;99.90
3156;DHT22;1588;50.892;7.082;2022-12-18T19:31:54;-1.60;99.90
3156;DHT22;1588;50.892;7.082;2022-12-18T19:36:58;-1.60;99.90
3156;DHT22;1588;50.892;7.082;2022-12-18T19:42:01;-1.60;99.90
3156;DHT22;1588;50.892;7.082;2022-12-18T19:47:04;-1.60;99.90
3156;DHT22;1588;50.892;7.082;2022-12-18T19:52:08;-1.60;99.90
3156;DHT22;1588;50.892;7.082;2022-12-18T19:57:11;-1.50;99.90
3156;DHT22;1588;50.892;7.082;2022-12-18T20:02:19;-1.40;99.90
3156;DHT22;1588;50.892;7.082;2022-12-18T20:07:23;-1.40;99.90
3156;DHT22;1588;50.892;7.082;2022-12-18T20:12:29;-1.40;99.90
3156;DHT22;1588;50.892;7.082;2022-12-18T20:17:32;-1.30;99.90
3156;DHT22;1588;50.892;7.082;2022-12-18T20:22:37;-1.30;99.90
3156;DHT22;1588;50.892;7.082;2022-12-18T20:27:39;-1.20;99.90
3156;DHT22;1588;50.892;7.082;2022-12-18T20:32:51;-1.20;99.90
3156;DHT22;1588;50.892;7.082;2022-12-18T20:38:06;-1.10;99.90
3156;DHT22;1588;50.892;7.082;2022-12-18T20:43:12;-1.20;99.90
3156;DHT22;1588;50.892;7.082;2022-12-18T20:48:14;-1.10;99.90
3156;DHT22;1588;50.892;7.082;2022-12-18T20:53:23;-1.00;99.90
3156;DHT22;1588;50.892;7.082;2022-12-18T20:58:32;-1.00;99.90
3156;DHT22;1588;50.892;7.082;2022-12-18T21:03:43;-1.00;99.90
3156;DHT22;1588;50.892;7.082;2022-12-18T21:08:48;-0.90;99.90
3156;DHT22;1588;50.892;7.082;2022-12-18T21:14:18;-0.90;99.90
3156;DHT22;1588;50.892;7.082;2022-12-18T21:19:33;-0.90;99.90
3156;DHT22;1588;50.892;7.082;2022-12-18T21:24:40;-0.80;99.90
3156;DHT22;1588;50.892;7.082;2022-12-18T21:35:45;-0.80;99.90
3156;DHT22;1588;50.892;7.082;2022-12-18T21:40:54;-0.70;99.90
3156;DHT22;1588;50.892;7.082;2022-12-18T21:46:18;-0.60;99.90
3156;DHT22;1588;50.892;7.082;2022-12-18T21:51:30;-0.60;99.90
3156;DHT22;1588;50.892;7.082;2022-12-18T21:56:47;-0.50;99.90
3156;DHT22;1588;50.892;7.082;2022-12-18T22:01:50;-0.50;99.90
3156;DHT22;1588;50.892;7.082;2022-12-18T22:07:03;-0.60;99.90
3156;DHT22;1588;50.892;7.082;2022-12-18T22:12:09;-0.50;99.90
3156;DHT22;1588;50.892;7.082;2022-12-18T22:17:34;-0.60;99.90
3156;DHT22;1588;50.892;7.082;2022-12-18T22:22:42;-0.60;99.90
3156;DHT22;1588;50.892;7.082;2022-12-18T22:27:48;-0.60;99.90
3156;DHT22;1588;50.892;7.082;2022-12-18T22:33:12;-0.60;99.90
3156;DHT22;1588;50.892;7.082;2022-12-18T22:38:26;-0.50;99.90
3156;DHT22;1588;50.892;7.082;2022-12-18T22:43:47;-0.40;99.90
3156;DHT22;1588;50.892;7.082;2022-12-18T22:48:53;-0.50;99.90
3156;DHT22;1588;50.892;7.082;2022-12-18T22:54:03;-0.40;99.90
3156;DHT22;1588;50.892;7.082;2022-12-18T22:59:15;-0.40;99.90
3156;DHT22;1588;50.892;7.082;2022-12-18T23:04:23;-0.40;99.90
3156;DHT22;1588;50.892;7.082;2022-12-18T23:09:35;-0.40;99.90
3156;DHT22;1588;50.892;7.082;2022-12-18T23:14:41;-0.30;99.90
3156;DHT22;1588;50.892;7.082;2022-12-18T23:19:54;-0.20;99.90
3156;DHT22;1588;50.892;7.082;2022-12-18T23:25:24;-0.20;99.90
3156;DHT22;1588;50.892;7.082;2022-12-18T23:37:41;-0.20;99.90
3156;DHT22;1588;50.892;7.082;2022-12-18T23:42:35;-0.10;99.90
3156;DHT22;1588;50.892;7.082;2022-12-18T23:48:19;0.00;99.90
3156;DHT22;1588;50.892;7.082;2022-12-18T23:53:34;0.00;99.90
